sensor_id;sensor_type;location;lat;lon;timestamp;pressure;altitude;pressure_sealevel;temperature;humidity
50672;BME280;46021;55.882;37.654;2023-02-04T00:01:35;98973.72;;;-1.31;86.92
50672;BME280;46021;55.882;37.654;2023-02-04T00:04:02;98977.97;;;-1.29;86.34
50672;BME280;46021;55.882;37.654;2023-02-04T00:06:29;98972.91;;;-1.26;87.77
50672;BME280;46021;55.882;37.654;2023-02-04T00:08:56;98978.88;;;-1.21;87.82
50672;BME280;46021;55.882;37.654;2023-02-04T00:11:23;98976.31;;;-1.18;87.17
50672;BME280;46021;55.882;37.654;2023-02-04T00:13:52;98975.50;;;-1.15;86.94
50672;BME280;46021;55.882;37.654;2023-02-04T00:16:19;98984.00;;;-1.18;86.00
50672;BME280;46021;55.882;37.654;2023-02-04T00:18:46;98981.47;;;-1.19;87.00
50672;BME280;46021;55.882;37.654;2023-02-04T00:21:13;98984.88;;;-1.19;86.88
50672;BME280;46021;55.882;37.654;2023-02-04T00:23:40;98983.13;;;-1.20;87.04
50672;BME280;46021;55.882;37.654;2023-02-04T00:26:07;98988.25;;;-1.20;87.79
50672;BME280;46021;55.882;37.654;2023-02-04T00:28:34;98995.09;;;-1.12;86.99
50672;BME280;46021;55.882;37.654;2023-02-04T00:31:02;98999.38;;;-1.13;87.09
50672;BME280;46021;55.882;37.654;2023-02-04T00:33:30;98999.34;;;-1.16;87.71
50672;BME280;46021;55.882;37.654;2023-02-04T00:35:57;98989.97;;;-1.19;87.41
50672;BME280;46021;55.882;37.654;2023-02-04T00:38:24;98996.81;;;-1.10;87.50
50672;BME280;46021;55.882;37.654;2023-02-04T00:40:51;98998.56;;;-1.07;87.83
50672;BME280;46021;55.882;37.654;2023-02-04T00:43:18;99002.81;;;-1.05;88.08
50672;BME280;46021;55.882;37.654;2023-02-04T00:45:45;99002.81;;;-1.05;88.08
50672;BME280;46021;55.882;37.654;2023-02-04T00:48:13;98998.53;;;-1.04;87.49
50672;BME280;46021;55.882;37.654;2023-02-04T00:50:40;99002.81;;;-1.03;87.67
50672;BME280;46021;55.882;37.654;2023-02-04T00:53:07;99005.38;;;-1.05;87.98
50672;BME280;46021;55.882;37.654;2023-02-04T00:55:34;99004.50;;;-1.07;88.62
50672;BME280;46021;55.882;37.654;2023-02-04T00:58:01;99008.75;;;-1.10;88.86
50672;BME280;46021;55.882;37.654;2023-02-04T01:00:29;99016.44;;;-1.13;87.14
50672;BME280;46021;55.882;37.654;2023-02-04T01:02:56;99021.53;;;-1.12;87.69
50672;BME280;46021;55.882;37.654;2023-02-04T01:05:24;99012.16;;;-1.13;88.42
50672;BME280;46021;55.882;37.654;2023-02-04T01:07:52;99008.72;;;-1.20;86.74
50672;BME280;46021;55.882;37.654;2023-02-04T01:10:19;99020.66;;;-1.19;86.71
50672;BME280;46021;55.882;37.654;2023-02-04T01:12:46;99003.59;;;-1.23;88.02
50672;BME280;46021;55.882;37.654;2023-02-04T01:15:13;99017.28;;;-1.13;87.53
50672;BME280;46021;55.882;37.654;2023-02-04T01:17:40;99018.97;;;-1.12;87.66
50672;BME280;46021;55.882;37.654;2023-02-04T01:20:08;99028.34;;;-1.15;87.17
50672;BME280;46021;55.882;37.654;2023-02-04T01:22:37;99018.13;;;-1.14;87.24
50672;BME280;46021;55.882;37.654;2023-02-04T01:25:05;99026.66;;;-1.15;87.58
50672;BME280;46021;55.882;37.654;2023-02-04T01:27:42;99025.78;;;-1.19;87.00
50672;BME280;46021;55.882;37.654;2023-02-04T01:30:11;99020.66;;;-1.15;88.27
50672;BME280;46021;55.882;37.654;2023-02-04T01:32:38;99027.50;;;-1.10;88.32
50672;BME280;46021;55.882;37.654;2023-02-04T01:35:07;99022.41;;;-1.11;86.69
50672;BME280;46021;55.882;37.654;2023-02-04T01:37:34;99030.94;;;-1.09;87.55
50672;BME280;46021;55.882;37.654;2023-02-04T01:40:03;99026.66;;;-1.09;88.48
50672;BME280;46021;55.882;37.654;2023-02-04T01:42:31;99026.66;;;-1.10;88.10
50672;BME280;46021;55.882;37.654;2023-02-04T01:44:58;99025.81;;;-1.09;88.61
50672;BME280;46021;55.882;37.654;2023-02-04T01:47:25;99032.63;;;-1.08;87.17
50672;BME280;46021;55.882;37.654;2023-02-04T01:49:53;99034.34;;;-1.07;87.48
50672;BME280;46021;55.882;37.654;2023-02-04T01:52:21;99038.63;;;-1.09;87.42
50672;BME280;46021;55.882;37.654;2023-02-04T01:54:50;99043.72;;;-1.09;88.22
50672;BME280;46021;55.882;37.654;2023-02-04T01:57:19;99039.44;;;-1.10;88.34
50672;BME280;46021;55.882;37.654;2023-02-04T01:59:46;99047.16;;;-1.06;87.92
50672;BME280;46021;55.882;37.654;2023-02-04T02:02:38;99048.00;;;-1.05;87.98
50672;BME280;46021;55.882;37.654;2023-02-04T02:05:06;99060.78;;;-1.02;88.18
50672;BME280;46021;55.882;37.654;2023-02-04T02:07:34;99057.41;;;-1.01;88.67
50672;BME280;46021;55.882;37.654;2023-02-04T02:10:02;99057.41;;;-1.01;87.35
50672;BME280;46021;55.882;37.654;2023-02-04T02:12:31;99060.81;;;-0.99;88.29
50672;BME280;46021;55.882;37.654;2023-02-04T02:14:59;99059.97;;;-0.95;87.98
50672;BME280;46021;55.882;37.654;2023-02-04T02:17:26;99061.69;;;-0.97;87.88
50672;BME280;46021;55.882;37.654;2023-02-04T02:19:54;99065.13;;;-0.92;88.83
50672;BME280;46021;55.882;37.654;2023-02-04T02:22:24;99066.81;;;-0.94;86.98
50672;BME280;46021;55.882;37.654;2023-02-04T02:24:54;99065.97;;;-0.91;88.77
50672;BME280;46021;55.882;37.654;2023-02-04T02:27:21;99071.94;;;-0.91;88.18
50672;BME280;46021;55.882;37.654;2023-02-04T02:29:49;99075.38;;;-0.89;88.16
50672;BME280;46021;55.882;37.654;2023-02-04T02:32:17;99080.50;;;-0.89;88.38
50672;BME280;46021;55.882;37.654;2023-02-04T02:34:45;99080.50;;;-0.86;88.51
50672;BME280;46021;55.882;37.654;2023-02-04T02:37:12;99084.75;;;-0.82;88.80
50672;BME280;46021;55.882;37.654;2023-02-04T02:42:28;99083.91;;;-0.84;87.16
50672;BME280;46021;55.882;37.654;2023-02-04T02:44:56;99077.94;;;-0.84;88.30
50672;BME280;46021;55.882;37.654;2023-02-04T02:47:23;99090.72;;;-0.86;86.68
50672;BME280;46021;55.882;37.654;2023-02-04T02:49:52;99100.97;;;-0.86;88.18
50672;BME280;46021;55.882;37.654;2023-02-04T02:52:20;99097.50;;;-0.94;85.48
50672;BME280;46021;55.882;37.654;2023-02-04T02:54:48;99098.38;;;-0.92;85.40
50672;BME280;46021;55.882;37.654;2023-02-04T02:57:19;99099.25;;;-0.90;88.26
50672;BME280;46021;55.882;37.654;2023-02-04T02:59:48;99093.25;;;-0.98;88.58
50672;BME280;46021;55.882;37.654;2023-02-04T03:02:19;99104.34;;;-0.96;87.72
50672;BME280;46021;55.882;37.654;2023-02-04T03:04:49;99102.59;;;-1.00;88.47
50672;BME280;46021;55.882;37.654;2023-02-04T03:07:21;99097.44;;;-1.09;88.00
50672;BME280;46021;55.882;37.654;2023-02-04T03:09:49;99102.59;;;-1.03;88.36
50672;BME280;46021;55.882;37.654;2023-02-04T03:12:18;99114.50;;;-1.05;86.56
50672;BME280;46021;55.882;37.654;2023-02-04T03:14:45;99102.50;;;-1.19;84.47
50672;BME280;46021;55.882;37.654;2023-02-04T03:17:14;99122.16;;;-1.08;87.01
50672;BME280;46021;55.882;37.654;2023-02-04T03:19:41;99119.59;;;-1.07;88.13
50672;BME280;46021;55.882;37.654;2023-02-04T03:22:09;99118.78;;;-1.06;89.26
50672;BME280;46021;55.882;37.654;2023-02-04T03:24:36;99116.16;;;-1.12;88.15
50672;BME280;46021;55.882;37.654;2023-02-04T03:27:03;99117.03;;;-1.10;88.21
50672;BME280;46021;55.882;37.654;2023-02-04T03:29:33;99124.72;;;-1.11;87.87
50672;BME280;46021;55.882;37.654;2023-02-04T03:32:00;99124.69;;;-1.14;87.84
50672;BME280;46021;55.882;37.654;2023-02-04T03:34:32;99124.66;;;-1.18;87.70
50672;BME280;46021;55.882;37.654;2023-02-04T03:36:59;99133.22;;;-1.12;88.23
50672;BME280;46021;55.882;37.654;2023-02-04T03:39:26;99135.81;;;-1.09;88.62
50672;BME280;46021;55.882;37.654;2023-02-04T03:41:53;99128.97;;;-1.10;88.58
50672;BME280;46021;55.882;37.654;2023-02-04T03:44:20;99134.91;;;-1.14;87.69
50672;BME280;46021;55.882;37.654;2023-02-04T03:46:51;99130.66;;;-1.17;86.49
50672;BME280;46021;55.882;37.654;2023-02-04T03:49:20;99139.19;;;-1.12;87.84
50672;BME280;46021;55.882;37.654;2023-02-04T03:51:48;99140.88;;;-1.17;86.99
50672;BME280;46021;55.882;37.654;2023-02-04T03:54:15;99137.47;;;-1.14;88.27
50672;BME280;46021;55.882;37.654;2023-02-04T03:56:43;99148.50;;;-1.25;87.54
50672;BME280;46021;55.882;37.654;2023-02-04T03:59:10;99150.97;;;-1.32;86.56
50672;BME280;46021;55.882;37.654;2023-02-04T04:01:37;99151.84;;;-1.32;86.49
50672;BME280;46021;55.882;37.654;2023-02-04T04:04:04;99150.13;;;-1.31;87.89
50672;BME280;46021;55.882;37.654;2023-02-04T04:06:31;99148.44;;;-1.31;87.74
50672;BME280;46021;55.882;37.654;2023-02-04T04:08:59;99157.78;;;-1.33;87.66
50672;BME280;46021;55.882;37.654;2023-02-04T04:11:26;99157.81;;;-1.30;88.55
50672;BME280;46021;55.882;37.654;2023-02-04T04:13:53;99158.63;;;-1.32;87.62
50672;BME280;46021;55.882;37.654;2023-02-04T04:16:20;99161.19;;;-1.32;87.25
50672;BME280;46021;55.882;37.654;2023-02-04T04:18:48;99162.91;;;-1.31;87.42
50672;BME280;46021;55.882;37.654;2023-02-04T04:21:15;99171.47;;;-1.28;89.14
50672;BME280;46021;55.882;37.654;2023-02-04T04:23:43;99158.56;;;-1.40;86.53
50672;BME280;46021;55.882;37.654;2023-02-04T04:26:11;99161.13;;;-1.43;86.45
50672;BME280;46021;55.882;37.654;2023-02-04T04:28:38;99173.91;;;-1.40;87.79
50672;BME280;46021;55.882;37.654;2023-02-04T04:31:05;99174.78;;;-1.40;87.43
50672;BME280;46021;55.882;37.654;2023-02-04T04:33:32;99170.44;;;-1.50;88.00
50672;BME280;46021;55.882;37.654;2023-02-04T04:35:59;99164.50;;;-1.47;88.44
50672;BME280;46021;55.882;37.654;2023-02-04T04:38:26;99183.28;;;-1.42;88.03
50672;BME280;46021;55.882;37.654;2023-02-04T04:40:53;99182.44;;;-1.41;88.86
50672;BME280;46021;55.882;37.654;2023-02-04T04:43:22;99178.94;;;-1.49;87.60
50672;BME280;46021;55.882;37.654;2023-02-04T04:45:49;99185.75;;;-1.51;85.58
50672;BME280;46021;55.882;37.654;2023-02-04T04:48:16;99190.94;;;-1.45;87.77
50672;BME280;46021;55.882;37.654;2023-02-04T04:50:43;99192.69;;;-1.41;88.12
50672;BME280;46021;55.882;37.654;2023-02-04T04:53:10;99185.81;;;-1.45;88.33
50672;BME280;46021;55.882;37.654;2023-02-04T04:55:38;99194.38;;;-1.43;87.61
50672;BME280;46021;55.882;37.654;2023-02-04T04:58:06;99202.91;;;-1.38;87.54
50672;BME280;46021;55.882;37.654;2023-02-04T05:00:36;99202.97;;;-1.33;88.16
50672;BME280;46021;55.882;37.654;2023-02-04T05:03:03;99208.09;;;-1.32;88.17
50672;BME280;46021;55.882;37.654;2023-02-04T05:05:30;99206.41;;;-1.27;88.43
50672;BME280;46021;55.882;37.654;2023-02-04T05:07:57;99204.72;;;-1.28;88.85
50672;BME280;46021;55.882;37.654;2023-02-04T05:10:24;99213.28;;;-1.23;88.21
50672;BME280;46021;55.882;37.654;2023-02-04T05:12:51;99218.41;;;-1.23;87.69
50672;BME280;46021;55.882;37.654;2023-02-04T05:15:18;99210.75;;;-1.18;89.03
50672;BME280;46021;55.882;37.654;2023-02-04T05:17:47;99204.75;;;-1.22;88.36
50672;BME280;46021;55.882;37.654;2023-02-04T05:20:14;99220.09;;;-1.25;87.08
50672;BME280;46021;55.882;37.654;2023-02-04T05:22:41;99225.25;;;-1.15;88.37
50672;BME280;46021;55.882;37.654;2023-02-04T05:25:08;99228.69;;;-1.15;88.87
50672;BME280;46021;55.882;37.654;2023-02-04T05:27:36;99237.19;;;-1.18;89.03
50672;BME280;46021;55.882;37.654;2023-02-04T05:30:03;99230.38;;;-1.15;89.69
50672;BME280;46021;55.882;37.654;2023-02-04T05:32:30;99239.78;;;-1.14;88.86
50672;BME280;46021;55.882;37.654;2023-02-04T05:34:59;99233.81;;;-1.13;89.39
50672;BME280;46021;55.882;37.654;2023-02-04T05:37:26;99241.50;;;-1.13;87.33
50672;BME280;46021;55.882;37.654;2023-02-04T05:39:53;99240.63;;;-1.12;87.84
50672;BME280;46021;55.882;37.654;2023-02-04T05:42:20;99252.59;;;-1.08;88.15
50672;BME280;46021;55.882;37.654;2023-02-04T05:44:47;99250.91;;;-1.09;87.91
50672;BME280;46021;55.882;37.654;2023-02-04T05:47:14;99249.22;;;-1.06;87.83
50672;BME280;46021;55.882;37.654;2023-02-04T05:49:41;99259.41;;;-1.10;86.79
50672;BME280;46021;55.882;37.654;2023-02-04T05:52:10;99260.28;;;-1.11;87.55
50672;BME280;46021;55.882;37.654;2023-02-04T05:54:37;99257.63;;;-1.18;86.13
50672;BME280;46021;55.882;37.654;2023-02-04T05:57:04;99256.78;;;-1.18;86.91
50672;BME280;46021;55.882;37.654;2023-02-04T05:59:31;99257.63;;;-1.21;85.63
50672;BME280;46021;55.882;37.654;2023-02-04T06:01:58;99272.16;;;-1.15;87.29
50672;BME280;46021;55.882;37.654;2023-02-04T06:04:25;99255.06;;;-1.21;87.85
50672;BME280;46021;55.882;37.654;2023-02-04T06:06:52;99273.06;;;-1.11;88.23
50672;BME280;46021;55.882;37.654;2023-02-04T06:09:21;99273.06;;;-1.08;89.03
50672;BME280;46021;55.882;37.654;2023-02-04T06:11:49;99276.47;;;-1.09;88.84
50672;BME280;46021;55.882;37.654;2023-02-04T06:14:16;99283.28;;;-1.11;88.29
50672;BME280;46021;55.882;37.654;2023-02-04T06:16:43;99282.38;;;-1.16;88.51
50672;BME280;46021;55.882;37.654;2023-02-04T06:19:10;99295.22;;;-1.13;88.94
50672;BME280;46021;55.882;37.654;2023-02-04T06:21:38;99294.25;;;-1.23;88.41
50672;BME280;46021;55.882;37.654;2023-02-04T06:24:05;99310.47;;;-1.20;89.07
50672;BME280;46021;55.882;37.654;2023-02-04T06:26:34;99319.84;;;-1.20;87.93
50672;BME280;46021;55.882;37.654;2023-02-04T06:29:01;99307.91;;;-1.23;88.95
50672;BME280;46021;55.882;37.654;2023-02-04T06:31:28;99313.91;;;-1.18;88.56
50672;BME280;46021;55.882;37.654;2023-02-04T06:33:55;99322.44;;;-1.15;89.15
50672;BME280;46021;55.882;37.654;2023-02-04T06:36:22;99319.06;;;-1.14;88.38
50672;BME280;46021;55.882;37.654;2023-02-04T06:38:50;99313.94;;;-1.14;89.30
50672;BME280;46021;55.882;37.654;2023-02-04T06:41:17;99314.81;;;-1.12;89.57
50672;BME280;46021;55.882;37.654;2023-02-04T06:43:45;99326.81;;;-1.05;89.22
50672;BME280;46021;55.882;37.654;2023-02-04T06:46:12;99325.94;;;-1.07;88.05
50672;BME280;46021;55.882;37.654;2023-02-04T06:48:40;99325.09;;;-1.05;89.82
50672;BME280;46021;55.882;37.654;2023-02-04T06:51:07;99326.78;;;-1.08;89.31
50672;BME280;46021;55.882;37.654;2023-02-04T06:53:34;99329.22;;;-1.21;88.34
50672;BME280;46021;55.882;37.654;2023-02-04T06:56:01;99334.34;;;-1.21;87.46
50672;BME280;46021;55.882;37.654;2023-02-04T06:58:28;99336.91;;;-1.21;87.92
50672;BME280;46021;55.882;37.654;2023-02-04T07:00:56;99327.56;;;-1.17;88.86
50672;BME280;46021;55.882;37.654;2023-02-04T07:03:24;99349.78;;;-1.08;88.64
50672;BME280;46021;55.882;37.654;2023-02-04T07:05:51;99348.09;;;-1.06;88.38
50672;BME280;46021;55.882;37.654;2023-02-04T07:08:18;99347.34;;;-0.98;89.29
50672;BME280;46021;55.882;37.654;2023-02-04T07:10:46;99350.78;;;-0.95;87.89
50672;BME280;46021;55.882;37.654;2023-02-04T07:13:13;99357.53;;;-1.01;86.92
50672;BME280;46021;55.882;37.654;2023-02-04T07:15:40;99354.19;;;-0.93;87.75
50672;BME280;46021;55.882;37.654;2023-02-04T07:18:09;99353.34;;;-0.94;86.18
50672;BME280;46021;55.882;37.654;2023-02-04T07:20:36;99360.25;;;-0.87;86.82
50672;BME280;46021;55.882;37.654;2023-02-04T07:23:03;99355.13;;;-0.84;88.17
50672;BME280;46021;55.882;37.654;2023-02-04T07:25:30;99357.75;;;-0.79;88.78
50672;BME280;46021;55.882;37.654;2023-02-04T07:27:57;99360.34;;;-0.77;87.41
50672;BME280;46021;55.882;37.654;2023-02-04T07:30:26;99358.66;;;-0.72;87.54
50672;BME280;46021;55.882;37.654;2023-02-04T07:32:53;99367.28;;;-0.64;88.19
50672;BME280;46021;55.882;37.654;2023-02-04T07:35:22;99369.00;;;-0.60;88.15
50672;BME280;46021;55.882;37.654;2023-02-04T07:37:49;99375.91;;;-0.53;88.13
50672;BME280;46021;55.882;37.654;2023-02-04T07:40:16;99375.09;;;-0.47;87.45
50672;BME280;46021;55.882;37.654;2023-02-04T07:42:43;99375.94;;;-0.44;87.83
50672;BME280;46021;55.882;37.654;2023-02-04T07:45:15;99381.13;;;-0.34;87.92
50672;BME280;46021;55.882;37.654;2023-02-04T07:47:43;99374.31;;;-0.35;88.62
50672;BME280;46021;55.882;37.654;2023-02-04T07:50:10;99379.47;;;-0.29;88.51
50672;BME280;46021;55.882;37.654;2023-02-04T07:52:38;99378.63;;;-0.27;89.24
50672;BME280;46021;55.882;37.654;2023-02-04T07:55:06;99385.56;;;-0.10;90.37
50672;BME280;46021;55.882;37.654;2023-02-04T07:57:33;99393.28;;;-0.09;87.68
50672;BME280;46021;55.882;37.654;2023-02-04T08:00:01;99384.75;;;-0.09;87.13
50672;BME280;46021;55.882;37.654;2023-02-04T08:02:38;99379.66;;;-0.02;87.62
50672;BME280;46021;55.882;37.654;2023-02-04T08:05:06;99393.34;;;0.04;87.39
50672;BME280;46021;55.882;37.654;2023-02-04T08:07:33;99401.06;;;0.07;86.21
50672;BME280;46021;55.882;37.654;2023-02-04T08:10:01;99390.84;;;0.14;87.32
50672;BME280;46021;55.882;37.654;2023-02-04T08:12:29;99393.44;;;0.19;88.14
50672;BME280;46021;55.882;37.654;2023-02-04T08:14:56;99401.19;;;0.31;88.92
50672;BME280;46021;55.882;37.654;2023-02-04T08:17:23;99405.50;;;0.42;88.71
50672;BME280;46021;55.882;37.654;2023-02-04T08:19:50;99392.72;;;0.48;87.88
50672;BME280;46021;55.882;37.654;2023-02-04T08:22:17;99398.72;;;0.56;87.74
50672;BME280;46021;55.882;37.654;2023-02-04T08:24:44;99401.34;;;0.67;88.15
50672;BME280;46021;55.882;37.654;2023-02-04T08:27:13;99409.91;;;0.69;88.92
50672;BME280;46021;55.882;37.654;2023-02-04T08:29:40;99400.44;;;0.58;88.40
50672;BME280;46021;55.882;37.654;2023-02-04T08:32:07;99409.03;;;0.65;89.19
50672;BME280;46021;55.882;37.654;2023-02-04T08:34:37;99412.47;;;0.70;89.04
50672;BME280;46021;55.882;37.654;2023-02-04T08:37:05;99409.03;;;0.71;87.13
50672;BME280;46021;55.882;37.654;2023-02-04T08:39:32;99408.19;;;0.68;85.03
50672;BME280;46021;55.882;37.654;2023-02-04T08:41:59;99405.59;;;0.63;84.00
50672;BME280;46021;55.882;37.654;2023-02-04T08:44:27;99401.34;;;0.68;87.24
50672;BME280;46021;55.882;37.654;2023-02-04T08:46:54;99406.50;;;0.74;87.75
50672;BME280;46021;55.882;37.654;2023-02-04T08:49:22;99411.66;;;0.82;86.14
50672;BME280;46021;55.882;37.654;2023-02-04T08:51:49;99412.53;;;0.92;86.26
50672;BME280;46021;55.882;37.654;2023-02-04T08:54:16;99419.41;;;0.99;86.28
50672;BME280;46021;55.882;37.654;2023-02-04T08:56:43;99414.28;;;1.02;87.35
50672;BME280;46021;55.882;37.654;2023-02-04T08:59:11;99414.28;;;1.05;84.18
50672;BME280;46021;55.882;37.654;2023-02-04T09:01:40;99417.69;;;1.07;87.28
50672;BME280;46021;55.882;37.654;2023-02-04T09:04:07;99421.94;;;0.88;86.08
50672;BME280;46021;55.882;37.654;2023-02-04T09:06:34;99428.75;;;0.85;87.17
50672;BME280;46021;55.882;37.654;2023-02-04T09:09:01;99427.00;;;0.70;83.05
50672;BME280;46021;55.882;37.654;2023-02-04T09:11:28;99431.31;;;0.72;85.04
50672;BME280;46021;55.882;37.654;2023-02-04T09:13:55;99426.19;;;0.85;86.58
50672;BME280;46021;55.882;37.654;2023-02-04T09:16:23;99433.03;;;0.83;85.17
50672;BME280;46021;55.882;37.654;2023-02-04T09:18:51;99427.03;;;0.79;85.62
50672;BME280;46021;55.882;37.654;2023-02-04T09:21:18;99436.47;;;0.88;86.23
50672;BME280;46021;55.882;37.654;2023-02-04T09:23:45;99436.47;;;0.85;85.17
50672;BME280;46021;55.882;37.654;2023-02-04T09:26:13;99434.78;;;0.93;83.91
50672;BME280;46021;55.882;37.654;2023-02-04T09:28:40;99439.94;;;1.01;83.35
50672;BME280;46021;55.882;37.654;2023-02-04T09:31:07;99445.94;;;1.04;83.85
50672;BME280;46021;55.882;37.654;2023-02-04T09:33:35;99450.28;;;1.27;84.83
50672;BME280;46021;55.882;37.654;2023-02-04T09:36:05;99450.31;;;1.44;86.38
50672;BME280;46021;55.882;37.654;2023-02-04T09:38:32;99450.31;;;1.59;86.94
50672;BME280;46021;55.882;37.654;2023-02-04T09:41:02;99457.16;;;1.59;84.41
50672;BME280;46021;55.882;37.654;2023-02-04T09:43:33;99460.63;;;1.76;85.27
50672;BME280;46021;55.882;37.654;2023-02-04T09:46:02;99460.59;;;1.91;84.62
50672;BME280;46021;55.882;37.654;2023-02-04T09:48:30;99462.31;;;1.95;84.27
50672;BME280;46021;55.882;37.654;2023-02-04T09:51:04;99462.31;;;2.02;84.28
50672;BME280;46021;55.882;37.654;2023-02-04T09:53:32;99463.19;;;2.10;83.64
50672;BME280;46021;55.882;37.654;2023-02-04T09:56:00;99464.00;;;2.18;84.05
50672;BME280;46021;55.882;37.654;2023-02-04T09:58:30;99468.28;;;2.25;83.19
50672;BME280;46021;55.882;37.654;2023-02-04T10:01:04;99469.13;;;2.26;83.12
50672;BME280;46021;55.882;37.654;2023-02-04T10:03:32;99472.59;;;2.11;82.09
50672;BME280;46021;55.882;37.654;2023-02-04T10:06:00;99472.59;;;1.89;81.89
50672;BME280;46021;55.882;37.654;2023-02-04T10:08:30;99472.59;;;1.83;81.29
50672;BME280;46021;55.882;37.654;2023-02-04T10:10:59;99478.56;;;1.62;80.92
50672;BME280;46021;55.882;37.654;2023-02-04T10:13:30;99465.72;;;1.48;81.33
50672;BME280;46021;55.882;37.654;2023-02-04T10:15:59;99472.56;;;1.45;81.79
50672;BME280;46021;55.882;37.654;2023-02-04T10:18:29;99476.81;;;1.35;81.65
50672;BME280;46021;55.882;37.654;2023-02-04T10:21:10;99485.41;;;1.43;81.30
50672;BME280;46021;55.882;37.654;2023-02-04T10:23:40;99481.13;;;1.48;81.31
50672;BME280;46021;55.882;37.654;2023-02-04T10:26:09;99490.53;;;1.45;80.91
50672;BME280;46021;55.882;37.654;2023-02-04T10:28:37;99487.06;;;1.30;80.31
50672;BME280;46021;55.882;37.654;2023-02-04T10:31:05;99491.34;;;1.28;80.56
50672;BME280;46021;55.882;37.654;2023-02-04T10:33:34;99487.91;;;1.19;79.58
50672;BME280;46021;55.882;37.654;2023-02-04T10:36:02;99490.47;;;1.20;78.10
50672;BME280;46021;55.882;37.654;2023-02-04T10:38:30;99495.59;;;1.14;79.69
50672;BME280;46021;55.882;37.654;2023-02-04T10:41:03;99491.22;;;0.90;78.72
50672;BME280;46021;55.882;37.654;2023-02-04T10:43:31;99494.66;;;0.92;80.63
50672;BME280;46021;55.882;37.654;2023-02-04T10:46:01;99497.19;;;0.80;79.43
50672;BME280;46021;55.882;37.654;2023-02-04T10:48:29;99511.69;;;0.79;80.32
50672;BME280;46021;55.882;37.654;2023-02-04T10:50:57;99503.19;;;0.86;80.18
50672;BME280;46021;55.882;37.654;2023-02-04T10:53:24;99505.81;;;1.02;81.77
50672;BME280;46021;55.882;37.654;2023-02-04T10:56:14;99505.88;;;1.14;80.82
50672;BME280;46021;55.882;37.654;2023-02-04T10:58:42;99512.75;;;1.27;80.80
50672;BME280;46021;55.882;37.654;2023-02-04T11:01:09;99505.09;;;1.38;80.42
50672;BME280;46021;55.882;37.654;2023-02-04T11:03:37;99507.63;;;1.40;80.33
50672;BME280;46021;55.882;37.654;2023-02-04T11:06:10;99514.50;;;1.45;79.69
50672;BME280;46021;55.882;37.654;2023-02-04T11:08:38;99523.91;;;1.37;79.34
50672;BME280;46021;55.882;37.654;2023-02-04T11:11:07;99527.25;;;1.13;78.88
50672;BME280;46021;55.882;37.654;2023-02-04T11:13:42;99515.22;;;1.01;78.18
50672;BME280;46021;55.882;37.654;2023-02-04T11:16:22;99521.22;;;0.97;78.89
50672;BME280;46021;55.882;37.654;2023-02-04T11:18:51;99527.19;;;0.93;77.91
50672;BME280;46021;55.882;37.654;2023-02-04T11:21:25;99528.75;;;0.68;77.94
50672;BME280;46021;55.882;37.654;2023-02-04T11:24:20;99529.53;;;0.54;77.87
50672;BME280;46021;55.882;37.654;2023-02-04T11:26:49;99532.03;;;0.47;77.89
50672;BME280;46021;55.882;37.654;2023-02-04T11:29:28;99532.78;;;0.32;78.89
50672;BME280;46021;55.882;37.654;2023-02-04T11:32:04;99532.72;;;0.19;77.69
50672;BME280;46021;55.882;37.654;2023-02-04T11:34:47;99545.47;;;0.15;78.46
50672;BME280;46021;55.882;37.654;2023-02-04T11:37:27;99540.38;;;0.18;79.37
50672;BME280;46021;55.882;37.654;2023-02-04T11:40:00;99540.38;;;0.18;78.35
50672;BME280;46021;55.882;37.654;2023-02-04T11:42:31;99548.16;;;0.27;78.00
50672;BME280;46021;55.882;37.654;2023-02-04T11:45:13;99554.19;;;0.32;78.89
50672;BME280;46021;55.882;37.654;2023-02-04T11:47:41;99555.81;;;0.24;78.00
50672;BME280;46021;55.882;37.654;2023-02-04T11:50:15;99553.22;;;0.23;78.83
50672;BME280;46021;55.882;37.654;2023-02-04T11:52:43;99557.53;;;0.25;77.88
50672;BME280;46021;55.882;37.654;2023-02-04T11:55:11;99552.41;;;0.28;78.50
50672;BME280;46021;55.882;37.654;2023-02-04T11:57:39;99542.97;;;0.23;78.17
50672;BME280;46021;55.882;37.654;2023-02-04T12:00:14;99560.94;;;0.24;78.69
50672;BME280;46021;55.882;37.654;2023-02-04T12:02:45;99563.44;;;0.16;78.75
50672;BME280;46021;55.882;37.654;2023-02-04T12:05:13;99561.75;;;0.20;78.86
50672;BME280;46021;55.882;37.654;2023-02-04T12:07:41;99568.59;;;0.18;77.73
50672;BME280;46021;55.882;37.654;2023-02-04T12:10:09;99569.44;;;0.18;77.58
50672;BME280;46021;55.882;37.654;2023-02-04T12:12:41;99567.69;;;0.13;77.21
50672;BME280;46021;55.882;37.654;2023-02-04T12:15:16;99579.66;;;0.17;79.47
50672;BME280;46021;55.882;37.654;2023-02-04T12:17:59;99583.13;;;0.19;79.27
50672;BME280;46021;55.882;37.654;2023-02-04T12:20:27;99586.56;;;0.21;78.51
50672;BME280;46021;55.882;37.654;2023-02-04T12:22:55;99589.19;;;0.29;79.51
50672;BME280;46021;55.882;37.654;2023-02-04T12:25:22;99583.13;;;0.22;77.36
50672;BME280;46021;55.882;37.654;2023-02-04T12:27:49;99580.59;;;0.24;77.94
50672;BME280;46021;55.882;37.654;2023-02-04T12:30:20;99596.84;;;0.27;78.23
50672;BME280;46021;55.882;37.654;2023-02-04T12:32:48;99594.13;;;0.09;77.51
50672;BME280;46021;55.882;37.654;2023-02-04T12:35:15;99597.59;;;0.12;77.49
50672;BME280;46021;55.882;37.654;2023-02-04T12:37:43;99607.03;;;0.18;78.03
50672;BME280;46021;55.882;37.654;2023-02-04T12:40:13;99604.44;;;0.15;77.74
50672;BME280;46021;55.882;37.654;2023-02-04T12:42:42;99612.03;;;0.03;77.17
50672;BME280;46021;55.882;37.654;2023-02-04T12:45:09;99600.03;;;-0.02;77.23
50672;BME280;46021;55.882;37.654;2023-02-04T12:47:38;99608.59;;;0.04;77.26
50672;BME280;46021;55.882;37.654;2023-02-04T12:50:06;99620.63;;;0.08;77.92
50672;BME280;46021;55.882;37.654;2023-02-04T12:52:34;99619.63;;;-0.05;77.99
50672;BME280;46021;55.882;37.654;2023-02-04T12:55:02;99619.59;;;-0.08;77.37
50672;BME280;46021;55.882;37.654;2023-02-04T12:57:29;99620.38;;;-0.14;76.60
50672;BME280;46021;55.882;37.654;2023-02-04T13:00:16;99628.91;;;-0.13;77.20
50672;BME280;46021;55.882;37.654;2023-02-04T13:02:45;99640.81;;;-0.20;77.77